| time (UTC) | temp C | wind direction | speed KPH | gust KPH | rain 1hr cm | rain 24hr cm | rain mn cm | humidity % | barometer mb |
| 20260507070004 | 13 | 175 | 0.0 | 1.6 | 0.03 | 0.48 | 0.10 | 86 | 1009.3 |
| 20260507064602 | 13 | 175 | 0.0 | 4.8 | 0.03 | 0.48 | 0.10 | 86 | 1009.2 |
| 20260507063101 | 13 | 134 | 0.0 | 0.0 | 0.05 | 0.48 | 0.10 | 89 | 1008.9 |
| 20260507061558 | 13 | 134 | 0.0 | 0.0 | 0.08 | 0.46 | 0.08 | 88 | 1009.3 |
| 20260507054653 | 14 | 134 | 0.0 | 4.8 | 0.08 | 0.46 | 0.08 | 88 | 1009.3 |
| 20260507053050 | 15 | 202 | 0.0 | 4.8 | 0.05 | 0.43 | 0.05 | 84 | 1009.2 |
| 20260507051546 | 16 | 198 | 0.0 | 1.6 | 0.00 | 0.38 | 0.00 | 76 | 1009.4 |
| 20260507050043 | 17 | 198 | 0.0 | 0.0 | 0.00 | 0.38 | 0.00 | 73 | 1009.3 |
| 20260507044540 | 17 | 148 | 0.0 | 3.2 | 0.00 | 0.38 | 0.00 | 72 | 1009.2 |
| 20260507043039 | 17 | 235 | 0.0 | 3.2 | 0.00 | 0.38 | 0.00 | 75 | 1009.0 |
| 20260507041535 | 18 | 235 | 0.0 | 0.0 | 0.00 | 0.38 | 0.00 | 76 | 1008.7 |
| 20260507040035 | 18 | 235 | 0.0 | 0.0 | 0.00 | 0.38 | 0.00 | 75 | 1008.2 |
| 20260507034533 | 18 | 235 | 0.0 | 1.6 | 0.00 | 0.38 | 0.38 | 74 | 1008.8 |
| 20260507033036 | 18 | 235 | 0.0 | 3.2 | 0.00 | 0.38 | 0.38 | 72 | 1008.5 |
| 20260507031532 | 18 | 235 | 0.0 | 4.8 | 0.00 | 0.38 | 0.38 | 70 | 1008.4 |
| 20260507030033 | 19 | 201 | 0.0 | 4.8 | 0.00 | 0.38 | 0.38 | 73 | 1008.3 |
| 20260507024534 | 20 | 197 | 0.0 | 1.6 | 0.00 | 0.38 | 0.38 | 78 | 1008.2 |
| 20260507023031 | 20 | 197 | 0.0 | 0.0 | 0.00 | 0.38 | 0.38 | 81 | 1007.9 |
| 20260507021529 | 20 | 197 | 0.0 | 0.0 | 0.00 | 0.38 | 0.38 | 80 | 1007.8 |
| 20260507020033 | 20 | 197 | 0.0 | 0.0 | 0.00 | 0.38 | 0.38 | 81 | 1007.6 |
| 20260507014529 | 20 | 197 | 0.0 | 0.0 | 0.00 | 0.38 | 0.38 | 81 | 1007.8 |
| 20260507013035 | 20 | 197 | 0.0 | 0.0 | 0.00 | 0.38 | 0.38 | 79 | 1007.9 |
| 20260507011537 | 20 | 197 | 0.0 | 0.0 | 0.00 | 0.38 | 0.38 | 79 | 1008.2 |
| 20260507010029 | 20 | 197 | 0.0 | 0.0 | 0.00 | 0.38 | 0.38 | 78 | 1007.8 |
| 20260507004526 | 20 | 197 | 0.0 | 0.0 | 0.00 | 0.38 | 0.38 | 78 | 1007.7 |
| 20260507003026 | 20 | 197 | 0.0 | 1.6 | 0.00 | 0.38 | 0.38 | 78 | 1007.6 |
| 20260507001529 | 20 | 198 | 0.0 | 1.6 | 0.00 | 0.38 | 0.38 | 77 | 1007.7 |
| 20260507000025 | 20 | 198 | 0.0 | 1.6 | 0.00 | 0.38 | 0.38 | 76 | 1007.3 |
| 20260506234530 | 20 | 198 | 0.0 | 0.0 | 0.00 | 0.38 | 0.38 | 76 | 1007.2 |
| 20260506233026 | 21 | 198 | 0.0 | 0.0 | 0.00 | 0.38 | 0.38 | 76 | 1007.1 |
| 20260506231525 | 21 | 113 | 0.0 | 1.6 | 0.00 | 0.38 | 0.38 | 74 | 1007.1 |
| 20260506230023 | 21 | 113 | 0.0 | 3.2 | 0.00 | 0.38 | 0.38 | 74 | 1006.7 |
| 20260506224527 | 21 | 234 | 0.0 | 3.2 | 0.00 | 0.38 | 0.38 | 73 | 1006.9 |
| 20260506223022 | 21 | 180 | 0.0 | 8.0 | 0.00 | 0.38 | 0.38 | 73 | 1006.9 |
| 20260506221522 | 21 | 173 | 0.0 | 6.4 | 0.00 | 0.38 | 0.38 | 72 | 1007.0 |
| 20260506220022 | 21 | 228 | 0.0 | 6.4 | 0.00 | 0.38 | 0.38 | 72 | 1007.0 |
| 20260506214520 | 21 | 146 | 0.0 | 3.2 | 0.00 | 0.38 | 0.38 | 71 | 1006.7 |
| 20260506213022 | 21 | 98 | 0.0 | 9.7 | 0.00 | 0.38 | 0.38 | 71 | 1006.7 |
| 20260506211519 | 21 | 91 | 0.0 | 4.8 | 0.00 | 0.38 | 0.38 | 72 | 1006.7 |
| 20260506210023 | 21 | 214 | 0.0 | 4.8 | 0.00 | 0.38 | 0.38 | 71 | 1006.3 |
| 20260506204518 | 22 | 184 | 0.0 | 8.0 | 0.00 | 0.38 | 0.38 | 70 | 1006.5 |
| 20260506203017 | 22 | 241 | 0.0 | 4.8 | 0.00 | 0.38 | 0.38 | 69 | 1006.2 |
| 20260506201521 | 22 | 179 | 0.0 | 9.7 | 0.00 | 0.38 | 0.38 | 69 | 1006.2 |
| 20260506200019 | 22 | 244 | 3.2 | 9.7 | 0.00 | 0.38 | 0.38 | 68 | 1006.2 |
| 20260506194517 | 22 | 238 | 1.6 | 8.0 | 0.00 | 0.38 | 0.38 | 69 | 1006.2 |
| 20260506193015 | 22 | 231 | 1.6 | 14.5 | 0.00 | 0.38 | 0.38 | 70 | 1006.2 |
| 20260506191517 | 22 | 212 | 1.6 | 11.3 | 0.00 | 0.38 | 0.38 | 70 | 1006.5 |
| 20260506190016 | 21 | 251 | 1.6 | 9.7 | 0.00 | 0.38 | 0.38 | 73 | 1006.7 |
| 20260506184513 | 21 | 265 | 0.0 | 16.1 | 0.00 | 0.38 | 0.38 | 74 | 1006.9 |
| 20260506183014 | 20 | 205 | 1.6 | 14.5 | 0.00 | 0.38 | 0.38 | 74 | 1007.0 |
| 20260506181512 | 20 | 230 | 0.0 | 9.7 | 0.00 | 0.38 | 0.38 | 76 | 1007.1 |
| 20260506180012 | 20 | 214 | 0.0 | 11.3 | 0.00 | 0.38 | 0.38 | 77 | 1007.2 |
| 20260506174515 | 19 | 17 | 1.6 | 19.3 | 0.00 | 0.38 | 0.38 | 78 | 1007.2 |
| 20260506173011 | 19 | 154 | 1.6 | 14.5 | 0.00 | 0.38 | 0.38 | 80 | 1007.2 |
| 20260506171515 | 19 | 83 | 0.0 | 11.3 | 0.00 | 0.38 | 0.38 | 83 | 1007.2 |
| 20260506170009 | 18 | 86 | 0.0 | 11.3 | 0.00 | 0.38 | 0.38 | 86 | 1007.3 |
| 20260506164513 | 18 | 106 | 0.0 | 14.5 | 0.03 | 0.38 | 0.38 | 87 | 1007.7 |
| 20260506163010 | 17 | 148 | 0.0 | 9.7 | 0.03 | 0.38 | 0.38 | 87 | 1007.6 |
| 20260506161508 | 17 | 208 | 0.0 | 6.4 | 0.03 | 0.38 | 0.38 | 89 | 1007.6 |
| 20260506160009 | 17 | 244 | 0.0 | 12.9 | 0.08 | 0.38 | 0.38 | 90 | 1008.1 |
| 20260506154518 | 17 | 169 | 0.0 | 6.4 | 0.15 | 0.36 | 0.36 | 90 | 1008.1 |
| 20260506153001 | 16 | 156 | 0.0 | 6.4 | 0.25 | 0.36 | 0.36 | 90 | 1008.2 |
| 20260506151559 | 16 | 102 | 0.0 | 11.3 | 0.28 | 0.36 | 0.36 | 90 | 1008.7 |
| 20260506150057 | 16 | 146 | 0.0 | 4.8 | 0.28 | 0.30 | 0.30 | 89 | 1008.8 |
| 20260506144554 | 16 | 164 | 0.0 | 6.4 | 0.20 | 0.20 | 0.20 | 86 | 1008.9 |
| 20260506143053 | 17 | 203 | 0.0 | 4.8 | 0.10 | 0.10 | 0.10 | 86 | 1008.8 |
| 20260506141550 | 17 | 261 | 0.0 | 3.2 | 0.08 | 0.08 | 0.08 | 84 | 1008.8 |
| 20260506140046 | 17 | 308 | 0.0 | 3.2 | 0.03 | 0.03 | 0.03 | 79 | 1009.1 |
| 20260506134542 | 18 | 281 | 0.0 | 6.4 | 0.00 | 0.00 | 0.00 | 75 | 1009.3 |
| 20260506133046 | 18 | 201 | 0.0 | 6.4 | 0.00 | 0.00 | 0.00 | 73 | 1009.1 |
| 20260506131540 | 18 | 154 | 0.0 | 8.0 | 0.00 | 0.00 | 0.00 | 72 | 1008.8 |
| 20260506130041 | 19 | 57 | 0.0 | 9.7 | 0.00 | 0.00 | 0.00 | 72 | 1008.6 |
| 20260506124543 | 18 | 195 | 0.0 | 3.2 | 0.00 | 0.00 | 0.00 | 72 | 1008.7 |
| 20260506123039 | 18 | 177 | 0.0 | 6.4 | 0.00 | 0.00 | 0.00 | 72 | 1009.0 |
| 20260506121546 | 19 | 277 | 0.0 | 4.8 | 0.00 | 0.00 | 0.00 | 71 | 1009.1 |
| 20260506120040 | 19 | 266 | 0.0 | 6.4 | 0.00 | 0.00 | 0.00 | 70 | 1008.9 |
| 20260506114536 | 19 | 57 | 0.0 | 8.0 | 0.00 | 0.00 | 0.00 | 69 | 1008.7 |
| 20260506113036 | 19 | 249 | 0.0 | 12.9 | 0.00 | 0.00 | 0.00 | 70 | 1008.6 |
| 20260506111536 | 18 | 47 | 0.0 | 11.3 | 0.00 | 0.00 | 0.00 | 70 | 1008.4 |
| 20260506110040 | 18 | 81 | 1.6 | 6.4 | 0.00 | 0.00 | 0.00 | 71 | 1008.2 |
| 20260506104535 | 18 | 91 | 0.0 | 6.4 | 0.00 | 0.00 | 0.00 | 71 | 1008.3 |
| 20260506103034 | 18 | 100 | 1.6 | 8.0 | 0.00 | 0.00 | 0.00 | 71 | 1008.2 |
| 20260506101533 | 18 | 125 | 0.0 | 3.2 | 0.00 | 0.00 | 0.00 | 72 | 1008.2 |
| 20260506100037 | 18 | 174 | 0.0 | 6.4 | 0.00 | 0.00 | 0.00 | 71 | 1008.2 |
| 20260506094530 | 18 | 12 | 0.0 | 6.4 | 0.00 | 0.00 | 0.00 | 70 | 1008.3 |
| 20260506093029 | 18 | 191 | 0.0 | 8.0 | 0.00 | 0.00 | 0.00 | 70 | 1008.2 |
| 20260506091529 | 18 | 56 | 1.6 | 14.5 | 0.00 | 0.00 | 0.00 | 69 | 1008.3 |
| 20260506090027 | 19 | 94 | 0.0 | 8.0 | 0.00 | 0.00 | 0.00 | 68 | 1008.5 |
| 20260506084534 | 19 | 248 | 0.0 | 8.0 | 0.00 | 0.00 | 0.00 | 67 | 1008.4 |
| 20260506083030 | 20 | 213 | 0.0 | 6.4 | 0.00 | 0.00 | 0.00 | 67 | 1008.3 |
| 20260506081522 | 20 | 107 | 0.0 | 9.7 | 0.00 | 0.00 | 0.00 | 66 | 1008.2 |
| 20260506073018 | 20 | 253 | 0.0 | 12.9 | 0.00 | 0.00 | 0.00 | 63 | 1008.7 |
| 20260506071516 | 21 | 43 | 0.0 | 6.4 | 0.00 | 0.00 | 0.00 | 61 | 1008.7 |